Time;durP1;ratioP1;P1;durP2;ratioP2;P2;SDS_P1;SDS_P2;PMS_P1;PMS_P2;Temp;Humidity;BMP_temperature;BMP_pressure;BME280_temperature;BME280_humidity;BME280_pressure;Samples;Min_cycle;Max_cycle;Signal;HPM_P1;HPM_P2
2021/05/03 00:00:15;;;;;;;6.75;2.20;;;;;;;33.83;12.47;94157.72;5084282;28;20048;-48
2021/05/03 00:02:42;;;;;;;6.18;2.10;;;;;;;35.26;11.10;94172.22;5096004;28;20051;-47
2021/05/03 00:05:22;;;;;;;10.52;1.77;;;;;;;34.52;11.75;94157.63;5096261;28;20054;-49
2021/05/03 00:07:49;;;;;;;10.00;1.92;;;;;;;33.55;12.44;94148.63;5093317;28;20338;-47
2021/05/03 00:10:24;;;;;;;8.38;1.80;;;;;;;33.90;11.63;94149.38;5088889;28;20044;-49
2021/05/03 00:12:51;;;;;;;6.13;1.73;;;;;;;33.72;11.46;94149.97;5096096;28;20054;-46
2021/05/03 00:15:19;;;;;;;8.40;1.77;;;;;;;35.44;9.91;94148.59;5096097;28;20331;-49
2021/05/03 00:17:46;;;;;;;4.55;1.40;;;;;;;34.35;10.62;94159.03;5095841;28;20048;-49
2021/05/03 00:20:13;;;;;;;5.53;1.63;;;;;;;34.66;10.15;94167.94;5096013;28;20086;-47
2021/05/03 00:22:40;;;;;;;5.00;1.88;;;;;;;34.03;10.43;94160.91;5095781;28;20370;-51
2021/05/03 00:25:08;;;;;;;5.50;1.42;;;;;;;34.84;10.14;94167.28;5095947;28;20060;-48
2021/05/03 00:27:35;;;;;;;6.03;1.63;;;;;;;34.75;10.29;94164.50;5095403;28;20055;-50
2021/05/03 00:30:04;;;;;;;5.45;1.40;;;;;;;33.89;10.95;94166.84;5075642;28;20059;-45
2021/05/03 00:32:31;;;;;;;4.60;1.65;;;;;;;33.45;11.53;94163.28;5074496;28;20350;-48
2021/05/03 00:34:58;;;;;;;5.75;1.67;;;;;;;33.63;10.91;94175.06;5091120;28;20048;-61
2021/05/03 00:37:25;;;;;;;2.92;1.25;;;;;;;34.81;10.32;94174.31;5095820;28;20476;-49
2021/05/03 00:39:53;;;;;;;5.85;1.85;;;;;;;34.22;10.68;94189.69;5084573;28;20058;-48
2021/05/03 00:42:20;;;;;;;3.92;1.42;;;;;;;33.80;11.43;94191.13;5095521;28;20066;-49
2021/05/03 00:44:49;;;;;;;3.72;1.35;;;;;;;34.17;11.01;94187.53;5095801;28;20080;-48
2021/05/03 00:47:17;;;;;;;6.05;1.27;;;;;;;33.24;11.11;94191.78;5095552;28;20044;-48
2021/05/03 00:49:44;;;;;;;5.47;1.50;;;;;;;34.49;10.29;94196.50;5095247;28;20351;-48
2021/05/03 00:52:12;;;;;;;4.85;1.40;;;;;;;34.71;10.29;94197.22;5095214;28;20451;-47
2021/05/03 00:54:39;;;;;;;3.40;1.13;;;;;;;34.08;10.46;94190.16;5095643;28;20055;-47
2021/05/03 00:57:08;;;;;;;3.97;1.35;;;;;;;34.44;10.11;94205.22;5095216;28;20362;-49
2021/05/03 00:59:35;;;;;;;5.78;1.25;;;;;;;34.61;10.01;94207.28;5079260;28;20051;-47
2021/05/03 01:02:02;;;;;;;3.70;1.35;;;;;;;35.38;9.64;94207.44;5073930;28;20052;-46
2021/05/03 01:04:30;;;;;;;6.15;1.25;;;;;;;35.13;9.59;94200.28;5075266;28;20052;-45
2021/05/03 01:06:57;;;;;;;3.53;1.42;;;;;;;35.20;9.25;94188.38;5075192;28;20044;-49
2021/05/03 01:09:24;;;;;;;4.38;1.13;;;;;;;35.50;9.11;94189.50;5083509;28;20052;-49
2021/05/03 01:11:51;;;;;;;3.83;1.30;;;;;;;35.13;9.58;94189.41;5074316;28;20040;-47
2021/05/03 01:14:18;;;;;;;7.28;1.42;;;;;;;34.81;9.83;94184.44;5074177;28;20052;-48
2021/05/03 01:16:45;;;;;;;4.28;1.30;;;;;;;34.85;9.40;94180.41;5075113;28;20336;-50
2021/05/03 01:19:13;;;;;;;4.93;1.20;;;;;;;34.46;10.04;94186.53;5074721;28;20044;-47
2021/05/03 01:21:40;;;;;;;5.80;1.50;;;;;;;34.99;9.45;94189.22;5074782;28;20494;-49
2021/05/03 01:24:07;;;;;;;4.63;1.20;;;;;;;35.34;9.40;94182.38;5074961;28;20049;-48
2021/05/03 01:26:34;;;;;;;3.22;1.30;;;;;;;34.35;10.18;94186.16;5074742;28;20051;-48
2021/05/03 01:29:01;;;;;;;4.78;1.20;;;;;;;35.73;9.06;94188.94;5074990;28;20375;-48
2021/05/03 01:31:34;;;;;;;3.42;1.38;;;;;;;35.07;9.54;94185.00;5075073;28;20049;-47
2021/05/03 01:34:09;;;;;;;3.28;1.13;;;;;;;33.81;10.44;94189.94;5075136;28;20059;-46
2021/05/03 01:36:38;;;;;;;3.85;1.25;;;;;;;33.86;10.54;94189.41;5095070;28;20048;-49
2021/05/03 01:39:07;;;;;;;7.07;2.13;;;;;;;34.50;10.64;94182.47;5086371;28;20055;-48
2021/05/03 01:41:35;;;;;;;7.25;1.60;;;;;;;34.66;10.73;94183.47;5094870;28;20044;-47
2021/05/03 01:44:04;;;;;;;5.45;1.52;;;;;;;34.75;10.81;94186.22;5095031;28;20074;-47
2021/05/03 01:46:32;;;;;;;5.05;1.30;;;;;;;35.70;10.07;94191.81;5087747;28;20044;-50
2021/05/03 01:49:09;;;;;;;3.78;1.30;;;;;;;34.82;10.68;94208.41;5074525;28;20048;-51
2021/05/03 01:51:38;;;;;;;4.85;1.50;;;;;;;34.93;10.82;94200.66;5076086;28;20048;-54
2021/05/03 01:54:06;;;;;;;4.28;1.00;;;;;;;34.54;11.12;94218.38;5078488;28;20075;-50
2021/05/03 01:56:46;;;;;;;5.25;1.50;;;;;;;34.83;11.05;94228.16;5078461;28;20045;-48
2021/05/03 01:59:33;;;;;;;7.20;1.60;;;;;;;35.05;10.77;94228.16;5077552;28;20052;-47
2021/05/03 02:02:01;;;;;;;4.07;1.40;;;;;;;35.05;10.50;94220.00;5078122;28;20049;-52
2021/05/03 02:04:28;;;;;;;4.10;1.17;;;;;;;34.91;10.53;94232.94;5078382;28;20056;-48
2021/05/03 02:07:14;;;;;;;4.68;1.40;;;;;;;34.73;10.51;94238.25;5080872;28;20056;-48
2021/05/03 02:09:45;;;;;;;4.63;1.58;;;;;;;34.45;11.18;94239.28;5090706;28;20051;-46
2021/05/03 02:12:13;;;;;;;5.80;1.63;;;;;;;33.78;11.54;94237.66;5078055;28;20052;-47
2021/05/03 02:14:41;;;;;;;6.20;1.92;;;;;;;33.71;11.21;94230.53;5082604;28;20047;-49
2021/05/03 02:17:10;;;;;;;5.85;1.25;;;;;;;33.84;11.76;94241.38;5095899;28;20052;-48
2021/05/03 02:19:37;;;;;;;6.70;1.75;;;;;;;34.18;11.68;94243.28;5078140;28;20047;-49
2021/05/03 02:22:04;;;;;;;3.13;1.40;;;;;;;34.40;11.10;94229.75;5077763;28;20358;-49
2021/05/03 02:24:32;;;;;;;4.38;1.67;;;;;;;33.38;12.15;94218.47;5078050;28;20450;-48
2021/05/03 02:26:59;;;;;;;4.20;1.30;;;;;;;34.14;11.54;94220.97;5076654;28;20059;-48
2021/05/03 02:29:26;;;;;;;4.50;1.40;;;;;;;34.20;11.52;94232.75;5077885;28;20115;-49
2021/05/03 02:31:53;;;;;;;6.53;1.70;;;;;;;33.50;11.95;94239.34;5077588;28;20463;-50
2021/05/03 02:34:20;;;;;;;5.47;1.50;;;;;;;34.53;11.00;94240.53;5077954;28;20059;-47
2021/05/03 02:36:48;;;;;;;3.47;1.23;;;;;;;33.64;12.03;94238.91;5077780;28;20059;-48
2021/05/03 02:39:15;;;;;;;4.53;1.45;;;;;;;33.99;12.29;94242.38;5080961;28;20450;-46
2021/05/03 02:41:42;;;;;;;4.28;1.50;;;;;;;34.17;11.65;94247.19;5097689;28;20448;-50
2021/05/03 02:44:09;;;;;;;6.50;1.70;;;;;;;33.06;12.76;94260.81;5097879;28;20046;-47
2021/05/03 02:46:36;;;;;;;3.45;1.40;;;;;;;33.91;12.13;94262.06;5097817;28;20044;-47
2021/05/03 02:49:04;;;;;;;4.28;1.58;;;;;;;34.14;11.91;94269.03;5097381;28;20044;-46
2021/05/03 02:51:32;;;;;;;4.57;1.48;;;;;;;34.27;11.72;94267.75;5096551;28;20040;-51
2021/05/03 02:54:00;;;;;;;4.25;1.38;;;;;;;33.39;12.21;94276.88;5097668;28;20048;-50
2021/05/03 02:56:27;;;;;;;5.65;1.50;;;;;;;33.73;11.92;94287.75;5097740;28;20074;-46
2021/05/03 02:58:59;;;;;;;5.70;2.00;;;;;;;33.53;12.07;94289.94;5097397;28;20048;-51
2021/05/03 03:01:26;;;;;;;5.03;1.50;;;;;;;33.33;12.38;94284.03;5097324;28;20370;-45
2021/05/03 03:03:53;;;;;;;3.75;1.30;;;;;;;34.31;11.94;94295.53;5097022;28;20126;-48
2021/05/03 03:06:21;;;;;;;4.03;1.33;;;;;;;33.97;11.81;94298.25;5097545;28;20050;-51
2021/05/03 03:08:48;;;;;;;3.20;1.40;;;;;;;33.53;12.48;94303.50;5082542;28;20048;-56
2021/05/03 03:11:15;;;;;;;5.63;1.50;;;;;;;34.29;11.86;94292.50;5096135;28;20051;-46
2021/05/03 03:13:42;;;;;;;6.65;1.70;;;;;;;33.73;11.87;94290.47;5097293;28;20052;-47
2021/05/03 03:16:10;;;;;;;6.65;1.85;;;;;;;35.56;11.07;94295.66;5097328;28;20046;-47
2021/05/03 03:18:37;;;;;;;4.03;1.63;;;;;;;35.80;10.81;94293.91;5083223;28;20057;-50
2021/05/03 03:21:05;;;;;;;5.32;1.80;;;;;;;35.51;11.06;94300.50;5092829;28;20051;-46
2021/05/03 03:23:32;;;;;;;5.45;1.92;;;;;;;34.92;11.52;94304.28;5096938;28;20103;-48
2021/05/03 03:25:59;;;;;;;5.32;2.25;;;;;;;34.93;11.76;94312.00;5097035;28;20040;-49
2021/05/03 03:28:26;;;;;;;7.00;2.05;;;;;;;35.18;11.16;94321.16;5085911;28;20051;-47
2021/05/03 03:30:53;;;;;;;4.10;1.75;;;;;;;35.69;10.81;94315.34;5076686;28;20048;-46
2021/05/03 03:33:20;;;;;;;4.38;1.80;;;;;;;35.07;11.35;94309.94;5076327;28;20044;-49
2021/05/03 03:35:47;;;;;;;5.78;1.98;;;;;;;35.23;11.23;94324.06;5076628;28;20056;-51
2021/05/03 03:38:14;;;;;;;4.20;1.70;;;;;;;34.99;11.45;94325.00;5076291;28;20045;-49
2021/05/03 03:40:43;;;;;;;4.50;1.70;;;;;;;35.26;11.21;94333.28;5092022;28;20048;-51
2021/05/03 03:43:11;;;;;;;4.07;1.55;;;;;;;35.31;11.41;94342.78;5095381;28;20051;-48
2021/05/03 03:45:38;;;;;;;5.20;1.80;;;;;;;34.15;12.05;94347.25;5096683;28;20052;-50
2021/05/03 03:48:07;;;;;;;4.30;1.40;;;;;;;34.26;12.25;94342.19;5089165;28;20044;-53
2021/05/03 03:50:34;;;;;;;5.35;1.90;;;;;;;34.51;12.31;94346.06;5076298;28;20052;-49
2021/05/03 03:53:01;;;;;;;5.75;1.92;;;;;;;35.04;11.54;94343.41;5076324;28;20052;-46
2021/05/03 03:55:28;;;;;;;6.45;1.95;;;;;;;35.09;11.73;94356.41;5075486;28;20052;-49
2021/05/03 03:57:56;;;;;;;6.00;1.70;;;;;;;35.09;11.65;94359.13;5075955;28;20040;-47
2021/05/03 04:00:23;;;;;;;4.95;1.60;;;;;;;34.63;12.16;94361.53;5076122;28;20362;-51
2021/05/03 04:02:51;;;;;;;6.63;1.90;;;;;;;35.10;11.72;94363.38;5075820;28;20044;-48
2021/05/03 04:26:24;;;;;;;4.65;1.75;;;;;;;34.43;12.64;94410.66;5096049;28;20048;-49
2021/05/03 04:28:53;;;;;;;5.38;1.60;;;;;;;34.55;12.99;94406.38;5086112;28;20044;-48
2021/05/03 04:31:21;;;;;;;4.93;1.75;;;;;;;34.55;12.86;94407.16;5095822;28;20047;-47
2021/05/03 04:33:49;;;;;;;6.60;1.63;;;;;;;34.36;13.33;94412.88;5095726;28;20051;-47
2021/05/03 04:36:16;;;;;;;4.53;1.75;;;;;;;34.45;13.10;94412.94;5095736;28;20059;-46
2021/05/03 04:38:43;;;;;;;4.85;2.17;;;;;;;35.07;12.55;94424.00;5092966;28;20370;-47
2021/05/03 04:41:11;;;;;;;5.93;2.28;;;;;;;34.58;12.83;94427.97;5083318;28;20047;-50
2021/05/03 04:43:38;;;;;;;6.03;1.90;;;;;;;34.32;13.12;94431.91;5095441;28;20438;-46
2021/05/03 04:46:06;;;;;;;4.38;1.55;;;;;;;34.69;12.65;94443.16;5095518;28;20075;-52
2021/05/03 04:48:33;;;;;;;8.35;2.10;;;;;;;35.12;12.36;94440.50;5086272;28;20048;-51
2021/05/03 04:51:01;;;;;;;6.82;2.45;;;;;;;34.37;13.10;94444.22;5076968;28;20367;-50
2021/05/03 04:53:28;;;;;;;6.07;1.90;;;;;;;34.68;12.83;94453.25;5094365;28;20036;-45
2021/05/03 04:55:55;;;;;;;9.10;1.95;;;;;;;34.21;13.20;94453.97;5095447;28;20048;-48
2021/05/03 04:58:22;;;;;;;5.15;2.25;;;;;;;34.60;13.14;94451.97;5092012;28;20048;-45
2021/05/03 05:00:49;;;;;;;6.70;2.03;;;;;;;35.35;12.31;94455.59;5095284;28;20040;-50
2021/05/03 05:03:16;;;;;;;6.55;2.10;;;;;;;34.38;13.28;94453.88;5095128;28;20055;-50
2021/05/03 05:05:46;;;;;;;5.18;1.65;;;;;;;34.35;13.28;94452.78;5095547;28;20059;-46
2021/05/03 05:08:14;;;;;;;6.53;2.38;;;;;;;35.33;12.49;94460.69;5089280;28;20048;-47
2021/05/03 05:10:41;;;;;;;6.40;1.42;;;;;;;34.65;13.46;94458.81;5090733;28;20373;-49
2021/05/03 05:13:08;;;;;;;5.57;1.90;;;;;;;35.63;12.96;94469.34;5094944;28;20047;-48
2021/05/03 05:15:35;;;;;;;6.68;2.03;;;;;;;36.77;12.00;94459.47;5095288;28;20051;-46
2021/05/03 05:18:02;;;;;;;6.72;2.10;;;;;;;36.90;12.06;94465.53;5090841;28;20052;-52
2021/05/03 05:20:29;;;;;;;6.90;1.90;;;;;;;35.90;12.92;94476.91;5075041;28;20045;-51
2021/05/03 05:22:56;;;;;;;6.60;1.80;;;;;;;34.90;14.00;94469.63;5074776;28;20052;-49
2021/05/03 05:25:24;;;;;;;4.40;1.80;;;;;;;36.38;12.94;94472.72;5076082;28;20477;-51
2021/05/03 05:27:51;;;;;;;7.68;2.25;;;;;;;36.36;13.17;94475.13;5078886;28;20048;-52
2021/05/03 05:30:18;;;;;;;6.88;2.53;;;;;;;36.15;13.00;94480.19;5093555;28;20438;-47
2021/05/03 05:32:45;;;;;;;12.65;2.85;;;;;;;36.56;12.91;94480.94;5099237;28;20044;-47
2021/05/03 05:35:12;;;;;;;4.80;2.10;;;;;;;37.05;12.86;94480.09;5099128;28;20043;-50
2021/05/03 05:37:40;;;;;;;7.40;2.20;;;;;;;36.37;13.69;94482.09;5098802;28;20054;-47
2021/05/03 05:40:08;;;;;;;5.95;1.95;;;;;;;35.58;14.70;94478.09;5090102;28;20043;-54
2021/05/03 05:42:36;;;;;;;9.00;2.00;;;;;;;37.15;13.97;94491.72;5084820;28;20048;-50
2021/05/03 05:45:05;;;;;;;5.32;2.13;;;;;;;35.80;14.86;94489.69;5086404;22;20029;-53
2021/05/03 05:47:32;;;;;;;5.38;1.88;;;;;;;37.22;13.59;94497.66;5094043;28;20072;-55
2021/05/03 05:50:03;;;;;;;5.07;2.20;;;;;;;37.51;13.44;94499.16;5099123;28;20047;-48
2021/05/03 05:52:32;;;;;;;4.05;2.00;;;;;;;37.32;14.09;94501.16;5098703;28;20051;-46
2021/05/03 05:54:59;;;;;;;4.85;2.40;;;;;;;36.77;14.53;94506.53;5098274;28;20047;-53
2021/05/03 05:57:26;;;;;;;9.00;2.42;;;;;;;37.48;13.57;94495.38;5098704;28;20044;-49
2021/05/03 05:59:54;;;;;;;9.55;2.80;;;;;;;37.10;14.60;94492.34;5097323;28;20047;-46
2021/05/03 06:02:21;;;;;;;7.43;2.90;;;;;;;37.34;13.75;94490.53;5098792;28;20476;-58
2021/05/03 06:04:48;;;;;;;6.90;2.92;;;;;;;32.35;18.48;94498.13;5097055;28;20048;-45
2021/05/03 06:07:15;;;;;;;10.63;3.50;;;;;;;35.45;15.79;94506.13;5097195;28;20051;-49
2021/05/03 06:09:42;;;;;;;6.20;2.60;;;;;;;36.44;14.77;94498.16;5096978;28;20059;-55
2021/05/03 06:12:14;;;;;;;7.00;2.80;;;;;;;36.52;14.58;94507.53;5098731;28;20048;-45
2021/05/03 06:14:43;;;;;;;8.02;3.92;;;;;;;35.31;16.03;94509.28;5098316;28;20058;-48
2021/05/03 06:17:10;;;;;;;12.75;6.82;;;;;;;35.92;15.67;94507.16;5068444;28;20051;-49
2021/05/03 06:19:51;;;;;;;8.18;4.43;;;;;;;35.98;15.99;94506.13;5082490;28;20052;-50
2021/05/03 06:22:18;;;;;;;4.85;3.35;;;;;;;36.00;15.39;94502.97;5093417;28;20051;-41
2021/05/03 06:24:46;;;;;;;10.05;3.70;;;;;;;35.80;15.90;94508.72;5098055;28;20059;-46
2021/05/03 06:27:13;;;;;;;10.65;3.40;;;;;;;35.84;15.94;94522.97;5091431;28;20055;-59
2021/05/03 06:29:40;;;;;;;6.63;2.83;;;;;;;35.66;16.18;94517.41;5077556;28;20052;-47
2021/05/03 06:32:07;;;;;;;6.32;2.67;;;;;;;35.75;15.87;94518.22;5077598;28;20040;-43
2021/05/03 06:34:34;;;;;;;6.05;2.40;;;;;;;36.36;15.42;94513.22;5086448;28;20059;-48
2021/05/03 06:37:09;;;;;;;6.45;2.30;;;;;;;35.82;16.25;94509.03;5077361;28;20044;-44
2021/05/03 06:39:37;;;;;;;8.95;2.42;;;;;;;36.30;15.93;94510.34;5097147;28;20044;-51
2021/05/03 06:42:05;;;;;;;4.47;1.83;;;;;;;36.63;16.17;94520.72;5097803;28;20059;-45
2021/05/03 06:44:34;;;;;;;8.32;2.28;;;;;;;36.75;15.19;94506.22;5090413;28;20052;-46
2021/05/03 06:47:03;;;;;;;4.70;2.30;;;;;;;36.79;15.65;94506.09;5081606;28;20069;-49
2021/05/03 06:49:30;;;;;;;5.63;1.95;;;;;;;37.30;15.11;94501.59;5087359;28;20039;-43
2021/05/03 06:51:57;;;;;;;6.75;2.20;;;;;;;37.02;14.90;94498.09;5088222;28;20058;-44
2021/05/03 06:54:24;;;;;;;4.30;1.60;;;;;;;36.63;15.44;94505.13;5089308;28;20358;-46
2021/05/03 06:56:52;;;;;;;6.75;2.10;;;;;;;36.86;15.34;94508.53;5085362;28;20382;-45
2021/05/03 06:59:19;;;;;;;5.00;1.88;;;;;;;37.21;14.87;94504.28;5084921;28;20078;-43
2021/05/03 07:01:46;;;;;;;6.47;2.00;;;;;;;37.15;14.91;94494.47;5084954;28;20052;-46
2021/05/03 07:04:13;;;;;;;6.88;2.00;;;;;;;37.14;15.07;94503.84;5086955;28;20465;-48
2021/05/03 07:06:41;;;;;;;3.67;1.67;;;;;;;36.83;15.06;94503.97;5097324;28;20348;-46
2021/05/03 07:09:09;;;;;;;3.80;2.00;;;;;;;36.06;15.78;94503.88;5077119;28;20047;-49
2021/05/03 07:11:39;;;;;;;6.68;2.58;;;;;;;35.67;15.84;94494.47;5076816;28;20048;-44
2021/05/03 07:14:07;;;;;;;6.20;2.20;;;;;;;36.20;15.61;94503.34;5076299;28;20050;-44
2021/05/03 07:16:35;;;;;;;6.30;3.10;;;;;;;36.97;14.90;94495.22;5085951;28;20048;-45
2021/05/03 07:19:02;;;;;;;4.25;1.90;;;;;;;37.05;14.71;94491.00;5077507;28;20079;-46
2021/05/03 07:21:30;;;;;;;4.50;1.90;;;;;;;36.42;15.19;94495.84;5076641;28;20439;-48
2021/05/03 07:23:57;;;;;;;7.78;2.25;;;;;;;36.58;15.27;94492.13;5076794;28;20064;-45
2021/05/03 07:26:24;;;;;;;5.40;2.33;;;;;;;37.19;14.44;94508.69;5074898;28;20047;-44
2021/05/03 07:28:51;;;;;;;8.70;3.38;;;;;;;36.80;14.87;94504.91;5079215;28;20059;-49
2021/05/03 07:31:19;;;;;;;4.82;2.67;;;;;;;37.19;14.91;94498.53;5084752;28;20054;-51
2021/05/03 07:33:46;;;;;;;4.72;2.15;;;;;;;37.35;14.04;94509.16;5096917;28;20044;-44
2021/05/03 07:36:13;;;;;;;6.00;2.67;;;;;;;37.68;13.52;94497.59;5096878;28;20323;-44
2021/05/03 07:38:40;;;;;;;3.47;1.95;;;;;;;37.14;14.41;94501.13;5081021;28;20474;-43
2021/05/03 07:41:07;;;;;;;4.25;1.83;;;;;;;37.72;14.21;94503.66;5076594;28;20059;-44
2021/05/03 07:43:36;;;;;;;3.47;1.80;;;;;;;37.28;14.75;94509.47;5076440;28;20044;-45
2021/05/03 07:46:03;;;;;;;8.50;2.63;;;;;;;37.44;14.28;94491.28;5075815;28;20060;-43
2021/05/03 07:48:31;;;;;;;3.78;1.80;;;;;;;36.84;15.25;94497.31;5076044;28;20048;-43
2021/05/03 07:50:58;;;;;;;5.05;2.03;;;;;;;37.26;14.46;94500.25;5076156;28;20062;-42
2021/05/03 07:53:25;;;;;;;4.10;2.10;;;;;;;37.46;14.04;94489.59;5076190;28;20044;-44
2021/05/03 07:55:52;;;;;;;4.03;2.10;;;;;;;37.67;13.46;94501.53;5076058;28;20048;-43
2021/05/03 07:58:19;;;;;;;4.90;2.03;;;;;;;37.41;13.90;94494.91;5076009;28;20044;-45
2021/05/03 08:00:49;;;;;;;6.43;2.60;;;;;;;37.80;13.71;94493.97;5076236;28;20052;-45
2021/05/03 08:03:17;;;;;;;4.18;1.88;;;;;;;37.91;13.68;94505.13;5084755;28;20361;-44
2021/05/03 08:05:45;;;;;;;3.47;1.63;;;;;;;38.20;12.91;94512.78;5096215;28;20047;-43
2021/05/03 08:08:12;;;;;;;3.10;2.30;;;;;;;38.17;13.17;94504.75;5085325;28;20045;-45
2021/05/03 08:10:39;;;;;;;2.65;1.77;;;;;;;37.94;13.42;94500.72;5082269;28;20056;-44
2021/05/03 08:13:06;;;;;;;4.65;1.90;;;;;;;37.82;13.05;94496.97;5096147;28;20051;-45
2021/05/03 08:15:34;;;;;;;4.07;1.88;;;;;;;37.17;13.27;94492.78;5091187;28;20470;-45
2021/05/03 08:18:02;;;;;;;2.85;2.00;;;;;;;37.34;13.76;94512.34;5075655;28;20052;-44
2021/05/03 08:20:29;;;;;;;4.13;2.03;;;;;;;37.80;13.12;94526.69;5075890;28;20045;-44
2021/05/03 08:22:56;;;;;;;3.33;1.80;;;;;;;37.16;13.67;94534.88;5075680;28;20450;-44
2021/05/03 08:25:24;;;;;;;2.90;1.63;;;;;;;38.01;13.10;94540.59;5075584;28;20458;-43
2021/05/03 08:27:51;;;;;;;3.45;1.40;;;;;;;37.69;13.18;94526.38;5075473;28;20370;-44
2021/05/03 08:30:18;;;;;;;3.97;1.70;;;;;;;37.70;13.24;94530.59;5075695;28;20055;-45
2021/05/03 08:32:45;;;;;;;3.72;1.75;;;;;;;37.01;13.26;94531.25;5075536;28;20470;-45
2021/05/03 08:35:13;;;;;;;4.57;2.10;;;;;;;37.90;13.35;94533.63;5075418;28;20082;-43
2021/05/03 08:37:40;;;;;;;3.88;1.80;;;;;;;37.74;12.50;94539.44;5074292;28;20352;-44
2021/05/03 08:40:08;;;;;;;3.03;1.80;;;;;;;38.19;12.47;94548.72;5075604;28;20077;-44
2021/05/03 08:42:35;;;;;;;3.60;1.95;;;;;;;38.30;12.97;94540.81;5075482;28;20466;-45
2021/05/03 08:45:03;;;;;;;4.60;1.83;;;;;;;38.28;13.03;94529.59;5074958;28;20063;-43
2021/05/03 08:47:34;;;;;;;3.42;1.80;;;;;;;38.52;12.40;94530.38;5075088;28;20370;-44
2021/05/03 08:50:09;;;;;;;3.90;1.67;;;;;;;37.67;13.28;94528.78;5058360;28;20359;-45
2021/05/03 08:52:57;;;;;;;3.72;2.10;;;;;;;37.58;12.80;94520.66;5075373;28;20044;-44
2021/05/03 08:55:25;;;;;;;3.75;1.85;;;;;;;37.70;12.69;94524.41;5075203;28;20040;-43
2021/05/03 08:57:52;;;;;;;3.30;1.83;;;;;;;37.62;13.20;94522.00;5075049;28;20040;-44
2021/05/03 09:00:20;;;;;;;3.15;1.65;;;;;;;38.39;12.34;94521.63;5074854;28;20052;-43
2021/05/03 09:02:47;;;;;;;4.55;2.35;;;;;;;38.35;12.13;94523.78;5075205;28;20041;-43
2021/05/03 09:05:16;;;;;;;5.75;2.03;;;;;;;38.64;11.83;94530.63;5083629;28;20067;-44
2021/05/03 09:07:48;;;;;;;4.78;2.03;;;;;;;39.00;11.43;94518.72;5090331;28;20040;-44
2021/05/03 09:10:16;;;;;;;3.88;1.98;;;;;;;38.55;12.53;94518.53;5075372;28;20060;-43
2021/05/03 09:12:43;;;;;;;5.45;2.58;;;;;;;38.23;12.32;94520.03;5057091;28;20047;-44
2021/05/03 09:15:11;;;;;;;5.72;2.30;;;;;;;38.61;12.71;94504.22;5075017;28;20079;-43
2021/05/03 09:17:40;;;;;;;7.75;2.45;;;;;;;38.67;11.70;94513.31;5091158;28;20398;-45
2021/05/03 09:20:08;;;;;;;5.57;2.08;;;;;;;38.81;12.20;94504.44;5075278;28;20052;-43
2021/05/03 09:22:49;;;;;;;5.68;2.20;;;;;;;38.40;12.91;94495.84;5075140;28;20044;-45
2021/05/03 09:25:21;;;;;;;6.07;2.63;;;;;;;38.68;11.98;94492.97;5074817;28;20044;-44
2021/05/03 09:27:49;;;;;;;6.30;2.70;;;;;;;38.91;12.36;94492.22;5074846;28;20370;-44
2021/05/03 09:30:32;;;;;;;5.40;2.95;;;;;;;38.06;12.70;94499.03;5057589;28;20059;-44
2021/05/03 09:33:15;;;;;;;8.65;3.17;;;;;;;38.45;12.77;94495.22;5074915;28;20045;-44
2021/05/03 09:35:57;;;;;;;6.63;2.50;;;;;;;38.79;12.08;94504.91;5073909;28;20055;-45
2021/05/03 09:38:30;;;;;;;6.68;2.60;;;;;;;38.75;11.84;94503.56;5074738;28;20040;-44
2021/05/03 09:41:18;;;;;;;4.18;2.53;;;;;;;38.74;12.13;94502.78;5074823;28;20059;-44
2021/05/03 09:43:47;;;;;;;7.22;2.85;;;;;;;39.09;12.05;94511.25;5074855;28;20324;-44
2021/05/03 09:46:28;;;;;;;5.25;2.65;;;;;;;38.41;12.53;94513.75;5066719;28;20494;-44
2021/05/03 09:48:57;;;;;;;5.30;2.60;;;;;;;39.03;11.92;94502.13;5080896;28;20041;-44
2021/05/03 09:51:39;;;;;;;5.95;2.38;;;;;;;38.45;12.59;94502.66;5074858;28;20045;-44
2021/05/03 09:54:12;;;;;;;4.72;2.53;;;;;;;38.96;11.74;94499.00;5091006;28;20044;-43
2021/05/03 09:57:05;;;;;;;5.07;2.50;;;;;;;38.55;12.33;94510.34;5094911;28;20067;-44
2021/05/03 09:59:35;;;;;;;6.57;2.90;;;;;;;38.50;12.13;94508.22;5076324;28;20041;-44
2021/05/03 10:02:13;;;;;;;6.67;3.00;;;;;;;38.90;12.10;94495.41;5074853;28;20052;-43
2021/05/03 10:05:10;;;;;;;6.18;3.10;;;;;;;38.69;12.44;94494.50;5074512;28;20048;-44
2021/05/03 10:07:39;;;;;;;5.82;3.05;;;;;;;38.51;12.78;94504.28;5073123;28;20055;-45
2021/05/03 10:10:13;;;;;;;4.35;3.03;;;;;;;38.54;12.28;94497.16;5074720;28;20045;-44
2021/05/03 10:12:40;;;;;;;5.40;2.97;;;;;;;38.39;12.71;94505.25;5076128;28;20052;-45
2021/05/03 10:15:10;;;;;;;8.32;2.95;;;;;;;38.27;11.96;94492.59;5078206;28;20354;-43
2021/05/03 10:17:39;;;;;;;6.05;3.10;;;;;;;38.89;11.71;94486.47;5096394;28;20521;-44
2021/05/03 10:20:08;;;;;;;6.38;3.25;;;;;;;38.93;12.25;94489.78;5087902;28;20374;-44
2021/05/03 10:22:35;;;;;;;9.50;3.47;;;;;;;39.29;12.15;94479.78;5098342;28;20052;-44
2021/05/03 10:25:12;;;;;;;4.45;2.92;;;;;;;39.57;11.68;94486.53;5097884;28;20052;-43
2021/05/03 10:27:42;;;;;;;5.70;3.00;;;;;;;39.36;11.96;94474.72;5096223;28;20488;-44
2021/05/03 10:30:20;;;;;;;5.35;2.78;;;;;;;38.30;12.20;94491.66;5090212;28;20055;-44
2021/05/03 10:33:03;;;;;;;7.45;3.33;;;;;;;39.04;11.75;94492.72;5098243;28;20063;-45
2021/05/03 10:35:46;;;;;;;8.35;2.78;;;;;;;38.66;11.63;94490.72;5098134;28;20040;-45
2021/05/03 10:38:40;;;;;;;9.27;2.85;;;;;;;39.28;11.67;94475.53;5091672;28;20110;-44
2021/05/03 10:41:34;;;;;;;3.75;2.47;;;;;;;39.07;11.37;94469.97;5077983;28;20055;-45
2021/05/03 10:44:19;;;;;;;5.82;2.50;;;;;;;39.25;11.76;94473.75;5077694;28;20370;-48
2021/05/03 10:49:40;;;;;;;5.75;2.42;;;;;;;38.82;11.09;94475.91;5066380;28;20474;-44
2021/05/03 10:52:12;;;;;;;5.20;2.70;;;;;;;38.46;11.39;94471.41;5077810;28;20055;-44
2021/05/03 10:54:48;;;;;;;7.40;2.70;;;;;;;38.94;10.68;94477.63;5077673;28;20063;-44
2021/05/03 10:57:15;;;;;;;4.55;2.17;;;;;;;39.40;10.69;94482.72;5060113;28;20485;-44
2021/05/03 10:59:52;;;;;;;8.65;2.10;;;;;;;38.88;11.62;94484.97;5087089;28;20052;-43
2021/05/03 11:02:20;;;;;;;5.38;2.00;;;;;;;39.00;11.25;94481.22;5097679;28;20052;-44
2021/05/03 11:05:12;;;;;;;5.63;2.00;;;;;;;39.38;10.37;94483.19;5097221;28;20083;-43
2021/05/03 11:08:05;;;;;;;4.72;2.10;;;;;;;39.42;10.65;94483.00;5096607;28;20512;-44
2021/05/03 11:10:57;;;;;;;7.30;2.30;;;;;;;38.97;11.30;94493.06;5077231;28;20049;-44
2021/05/03 11:13:37;;;;;;;3.30;2.05;;;;;;;39.16;11.36;94499.94;5077182;28;20048;-45
2021/05/03 11:16:27;;;;;;;4.13;1.98;;;;;;;37.96;12.14;94485.41;5085256;28;20047;-43
2021/05/03 11:18:56;;;;;;;4.38;2.25;;;;;;;39.10;11.34;94493.63;5086504;28;20044;-43
2021/05/03 11:21:46;;;;;;;4.20;2.20;;;;;;;38.72;11.21;94488.09;5077039;28;20044;-43
2021/05/03 11:24:17;;;;;;;5.78;2.22;;;;;;;38.69;10.87;94494.50;5076486;28;20443;-44
2021/05/03 11:26:53;;;;;;;4.70;2.10;;;;;;;39.12;10.67;94488.44;5076894;28;20048;-44
2021/05/03 11:29:24;;;;;;;4.70;2.05;;;;;;;38.79;11.48;94493.97;5076573;28;20095;-45
2021/05/03 11:31:52;;;;;;;4.80;1.98;;;;;;;39.29;10.58;94491.47;5076768;28;20047;-44
2021/05/03 11:34:34;;;;;;;4.45;2.28;;;;;;;38.91;10.79;94473.09;5088374;28;20040;-45
2021/05/03 11:37:08;;;;;;;5.07;2.40;;;;;;;38.22;11.33;94476.81;5081286;28;20056;-44
2021/05/03 11:45:28;;;;;;;5.20;1.70;;;;;;;38.86;9.74;94476.47;5093135;28;20056;-43
2021/05/03 11:47:56;;;;;;;7.57;1.90;;;;;;;38.79;10.12;94476.84;5076492;28;20052;-43
2021/05/03 11:50:25;;;;;;;4.57;1.75;;;;;;;38.25;10.29;94473.16;5076552;28;20048;-43
2021/05/03 11:52:52;;;;;;;3.50;1.70;;;;;;;39.21;10.13;94473.94;5076393;28;20060;-45
2021/05/03 11:55:23;;;;;;;4.95;2.08;;;;;;;38.85;10.11;94472.22;5075431;28;20454;-45
2021/05/03 11:57:50;;;;;;;4.97;1.83;;;;;;;38.59;10.30;94468.44;5075997;28;20447;-44
2021/05/03 12:00:23;;;;;;;4.47;1.80;;;;;;;39.51;9.52;94469.25;5076229;28;20052;-43
2021/05/03 12:03:06;;;;;;;3.88;1.52;;;;;;;38.76;9.69;94458.63;5076227;28;20055;-44
2021/05/03 12:05:34;;;;;;;5.28;1.80;;;;;;;38.33;10.32;94452.53;5075868;28;20359;-43
2021/05/03 12:08:14;;;;;;;3.13;1.88;;;;;;;38.45;10.24;94454.25;5075859;28;20047;-45
2021/05/03 12:10:42;;;;;;;4.28;1.80;;;;;;;38.56;10.08;94451.03;5076083;28;20048;-44
2021/05/03 12:13:19;;;;;;;3.47;1.80;;;;;;;39.14;9.72;94447.72;5075967;28;20040;-44
2021/05/03 12:15:46;;;;;;;3.22;1.60;;;;;;;38.23;10.44;94443.59;5063986;28;20079;-43